sensor_id;sensor_type;location;lat;lon;timestamp;P1;durP1;ratioP1;P2;durP2;ratioP2
10884;SDS011;5495;53.252;10.390;2022-09-09T00:01:15;16.27;;;14.53;;
10884;SDS011;5495;53.252;10.390;2022-09-09T00:03:57;18.30;;;14.27;;
10884;SDS011;5495;53.252;10.390;2022-09-09T00:06:31;17.33;;;14.90;;
10884;SDS011;5495;53.252;10.390;2022-09-09T00:09:04;15.57;;;13.97;;
10884;SDS011;5495;53.252;10.390;2022-09-09T00:11:40;15.17;;;13.53;;
10884;SDS011;5495;53.252;10.390;2022-09-09T00:14:15;20.23;;;13.80;;
10884;SDS011;5495;53.252;10.390;2022-09-09T00:16:51;16.23;;;13.73;;
10884;SDS011;5495;53.252;10.390;2022-09-09T00:19:23;14.97;;;13.37;;
10884;SDS011;5495;53.252;10.390;2022-09-09T00:22:00;14.27;;;12.77;;
10884;SDS011;5495;53.252;10.390;2022-09-09T00:24:43;16.93;;;12.53;;
10884;SDS011;5495;53.252;10.390;2022-09-09T00:27:24;14.60;;;13.13;;
10884;SDS011;5495;53.252;10.390;2022-09-09T00:29:57;15.03;;;12.80;;
10884;SDS011;5495;53.252;10.390;2022-09-09T00:32:28;13.10;;;11.70;;
10884;SDS011;5495;53.252;10.390;2022-09-09T00:34:58;16.97;;;12.47;;
10884;SDS011;5495;53.252;10.390;2022-09-09T00:37:36;16.57;;;11.27;;
10884;SDS011;5495;53.252;10.390;2022-09-09T00:40:11;12.00;;;10.80;;
10884;SDS011;5495;53.252;10.390;2022-09-09T00:42:52;13.67;;;11.60;;
10884;SDS011;5495;53.252;10.390;2022-09-09T00:45:42;24.23;;;10.77;;
10884;SDS011;5495;53.252;10.390;2022-09-09T00:48:42;14.87;;;9.83;;
10884;SDS011;5495;53.252;10.390;2022-09-09T00:51:23;20.33;;;10.63;;
10884;SDS011;5495;53.252;10.390;2022-09-09T00:54:12;13.33;;;10.27;;
10884;SDS011;5495;53.252;10.390;2022-09-09T00:56:53;11.63;;;10.43;;
10884;SDS011;5495;53.252;10.390;2022-09-09T00:59:32;11.33;;;9.33;;
10884;SDS011;5495;53.252;10.390;2022-09-09T01:02:13;12.00;;;9.70;;
10884;SDS011;5495;53.252;10.390;2022-09-09T01:04:48;14.17;;;10.53;;
10884;SDS011;5495;53.252;10.390;2022-09-09T01:07:16;10.20;;;8.90;;
10884;SDS011;5495;53.252;10.390;2022-09-09T01:09:50;11.63;;;10.50;;
10884;SDS011;5495;53.252;10.390;2022-09-09T01:12:26;14.00;;;11.57;;
10884;SDS011;5495;53.252;10.390;2022-09-09T01:15:07;12.70;;;11.13;;
10884;SDS011;5495;53.252;10.390;2022-09-09T01:17:41;16.50;;;11.13;;
10884;SDS011;5495;53.252;10.390;2022-09-09T01:20:18;18.90;;;12.23;;
10884;SDS011;5495;53.252;10.390;2022-09-09T01:22:56;19.30;;;12.90;;
10884;SDS011;5495;53.252;10.390;2022-09-09T01:28:54;28.50;;;12.57;;
10884;SDS011;5495;53.252;10.390;2022-09-09T01:31:23;18.77;;;11.37;;
10884;SDS011;5495;53.252;10.390;2022-09-09T01:33:56;43.60;;;12.97;;
10884;SDS011;5495;53.252;10.390;2022-09-09T01:36:26;14.53;;;11.33;;
10884;SDS011;5495;53.252;10.390;2022-09-09T01:39:01;26.90;;;11.27;;
10884;SDS011;5495;53.252;10.390;2022-09-09T01:41:29;17.97;;;12.20;;
10884;SDS011;5495;53.252;10.390;2022-09-09T01:43:58;17.43;;;11.50;;
10884;SDS011;5495;53.252;10.390;2022-09-09T01:46:25;19.77;;;12.03;;
10884;SDS011;5495;53.252;10.390;2022-09-09T01:48:55;21.03;;;11.77;;
10884;SDS011;5495;53.252;10.390;2022-09-09T01:51:26;13.50;;;11.00;;
10884;SDS011;5495;53.252;10.390;2022-09-09T01:53:53;56.30;;;11.73;;
10884;SDS011;5495;53.252;10.390;2022-09-09T01:56:33;13.40;;;11.13;;
10884;SDS011;5495;53.252;10.390;2022-09-09T01:59:10;12.57;;;10.57;;
10884;SDS011;5495;53.252;10.390;2022-09-09T02:01:51;11.97;;;10.50;;
10884;SDS011;5495;53.252;10.390;2022-09-09T02:04:31;15.67;;;10.77;;
10884;SDS011;5495;53.252;10.390;2022-09-09T02:07:08;11.23;;;10.07;;
10884;SDS011;5495;53.252;10.390;2022-09-09T02:09:42;16.63;;;10.30;;
10884;SDS011;5495;53.252;10.390;2022-09-09T02:12:15;13.03;;;9.83;;
10884;SDS011;5495;53.252;10.390;2022-09-09T02:14:48;11.83;;;9.73;;
10884;SDS011;5495;53.252;10.390;2022-09-09T02:17:21;16.83;;;10.17;;
10884;SDS011;5495;53.252;10.390;2022-09-09T02:19:54;13.43;;;8.77;;
10884;SDS011;5495;53.252;10.390;2022-09-09T02:22:32;11.10;;;8.87;;
10884;SDS011;5495;53.252;10.390;2022-09-09T02:25:02;14.53;;;9.27;;
10884;SDS011;5495;53.252;10.390;2022-09-09T02:27:34;13.80;;;8.77;;
10884;SDS011;5495;53.252;10.390;2022-09-09T02:30:03;9.93;;;8.93;;
10884;SDS011;5495;53.252;10.390;2022-09-09T02:32:32;15.53;;;9.10;;
10884;SDS011;5495;53.252;10.390;2022-09-09T02:35:02;13.97;;;8.83;;
10884;SDS011;5495;53.252;10.390;2022-09-09T02:37:35;10.73;;;8.87;;
10884;SDS011;5495;53.252;10.390;2022-09-09T02:40:05;11.33;;;9.43;;
10884;SDS011;5495;53.252;10.390;2022-09-09T02:42:38;10.70;;;9.13;;
10884;SDS011;5495;53.252;10.390;2022-09-09T02:45:09;16.00;;;10.47;;
10884;SDS011;5495;53.252;10.390;2022-09-09T02:47:40;11.17;;;9.40;;
10884;SDS011;5495;53.252;10.390;2022-09-09T02:50:16;9.37;;;8.30;;
10884;SDS011;5495;53.252;10.390;2022-09-09T02:52:49;10.30;;;9.30;;
10884;SDS011;5495;53.252;10.390;2022-09-09T02:55:32;10.30;;;9.30;;
10884;SDS011;5495;53.252;10.390;2022-09-09T02:58:05;11.77;;;8.70;;
10884;SDS011;5495;53.252;10.390;2022-09-09T03:00:39;10.27;;;9.10;;
10884;SDS011;5495;53.252;10.390;2022-09-09T03:03:07;10.63;;;9.27;;
10884;SDS011;5495;53.252;10.390;2022-09-09T03:05:35;10.43;;;9.33;;
10884;SDS011;5495;53.252;10.390;2022-09-09T03:08:05;11.27;;;8.90;;
10884;SDS011;5495;53.252;10.390;2022-09-09T03:10:33;13.37;;;9.27;;
10884;SDS011;5495;53.252;10.390;2022-09-09T03:13:02;15.90;;;8.20;;
10884;SDS011;5495;53.252;10.390;2022-09-09T03:15:30;10.83;;;8.27;;
10884;SDS011;5495;53.252;10.390;2022-09-09T03:18:00;10.90;;;8.47;;
10884;SDS011;5495;53.252;10.390;2022-09-09T03:20:28;11.47;;;9.00;;
10884;SDS011;5495;53.252;10.390;2022-09-09T03:22:59;10.30;;;8.10;;
10884;SDS011;5495;53.252;10.390;2022-09-09T03:25:29;8.63;;;7.67;;
10884;SDS011;5495;53.252;10.390;2022-09-09T03:27:57;9.93;;;7.87;;
10884;SDS011;5495;53.252;10.390;2022-09-09T03:30:25;8.97;;;7.93;;
10884;SDS011;5495;53.252;10.390;2022-09-09T03:32:54;11.17;;;8.23;;
10884;SDS011;5495;53.252;10.390;2022-09-09T03:35:23;11.97;;;7.57;;
10884;SDS011;5495;53.252;10.390;2022-09-09T03:37:51;9.00;;;7.97;;
10884;SDS011;5495;53.252;10.390;2022-09-09T03:40:20;12.13;;;7.83;;
10884;SDS011;5495;53.252;10.390;2022-09-09T03:42:47;12.23;;;7.93;;
10884;SDS011;5495;53.252;10.390;2022-09-09T03:45:15;9.67;;;8.17;;
10884;SDS011;5495;53.252;10.390;2022-09-09T03:47:43;8.83;;;8.03;;
10884;SDS011;5495;53.252;10.390;2022-09-09T03:50:11;9.10;;;8.17;;
10884;SDS011;5495;53.252;10.390;2022-09-09T03:52:40;7.80;;;6.87;;
10884;SDS011;5495;53.252;10.390;2022-09-09T03:55:09;8.63;;;7.43;;
10884;SDS011;5495;53.252;10.390;2022-09-09T03:57:36;9.87;;;7.53;;
10884;SDS011;5495;53.252;10.390;2022-09-09T04:00:04;9.57;;;6.93;;
10884;SDS011;5495;53.252;10.390;2022-09-09T04:02:37;9.00;;;7.00;;
10884;SDS011;5495;53.252;10.390;2022-09-09T04:05:05;8.93;;;6.67;;
10884;SDS011;5495;53.252;10.390;2022-09-09T04:07:33;8.33;;;7.53;;
10884;SDS011;5495;53.252;10.390;2022-09-09T04:10:02;10.23;;;7.50;;
10884;SDS011;5495;53.252;10.390;2022-09-09T04:12:29;10.40;;;7.90;;
10884;SDS011;5495;53.252;10.390;2022-09-09T04:14:57;10.57;;;7.47;;
10884;SDS011;5495;53.252;10.390;2022-09-09T04:17:24;8.50;;;7.47;;
10884;SDS011;5495;53.252;10.390;2022-09-09T04:19:52;11.50;;;7.33;;
10884;SDS011;5495;53.252;10.390;2022-09-09T04:22:19;21.83;;;7.83;;
10884;SDS011;5495;53.252;10.390;2022-09-09T04:24:48;9.27;;;8.27;;
10884;SDS011;5495;53.252;10.390;2022-09-09T04:27:16;10.57;;;7.40;;
10884;SDS011;5495;53.252;10.390;2022-09-09T04:29:44;8.43;;;7.57;;
10884;SDS011;5495;53.252;10.390;2022-09-09T04:32:12;10.43;;;7.90;;
10884;SDS011;5495;53.252;10.390;2022-09-09T04:34:44;9.63;;;7.57;;
10884;SDS011;5495;53.252;10.390;2022-09-09T04:37:12;13.67;;;8.13;;
10884;SDS011;5495;53.252;10.390;2022-09-09T04:39:43;9.67;;;7.83;;
10884;SDS011;5495;53.252;10.390;2022-09-09T04:42:11;8.10;;;7.30;;
10884;SDS011;5495;53.252;10.390;2022-09-09T04:44:40;8.17;;;7.37;;
10884;SDS011;5495;53.252;10.390;2022-09-09T04:47:07;12.10;;;7.70;;
10884;SDS011;5495;53.252;10.390;2022-09-09T04:49:35;10.90;;;7.60;;
10884;SDS011;5495;53.252;10.390;2022-09-09T04:52:03;10.13;;;7.73;;
10884;SDS011;5495;53.252;10.390;2022-09-09T04:54:31;9.30;;;7.47;;
10884;SDS011;5495;53.252;10.390;2022-09-09T04:56:58;7.97;;;7.17;;
10884;SDS011;5495;53.252;10.390;2022-09-09T04:59:26;9.30;;;7.50;;
10884;SDS011;5495;53.252;10.390;2022-09-09T05:01:56;10.83;;;7.07;;
10884;SDS011;5495;53.252;10.390;2022-09-09T05:04:26;8.47;;;7.17;;
10884;SDS011;5495;53.252;10.390;2022-09-09T05:06:54;8.10;;;7.30;;
10884;SDS011;5495;53.252;10.390;2022-09-09T05:09:22;8.30;;;6.83;;
10884;SDS011;5495;53.252;10.390;2022-09-09T05:11:49;11.30;;;6.93;;
10884;SDS011;5495;53.252;10.390;2022-09-09T05:14:20;7.47;;;6.73;;
10884;SDS011;5495;53.252;10.390;2022-09-09T05:16:48;7.70;;;6.60;;
10884;SDS011;5495;53.252;10.390;2022-09-09T05:19:18;8.23;;;6.50;;
10884;SDS011;5495;53.252;10.390;2022-09-09T05:21:45;10.67;;;6.90;;
10884;SDS011;5495;53.252;10.390;2022-09-09T05:24:14;6.83;;;6.23;;
10884;SDS011;5495;53.252;10.390;2022-09-09T05:26:42;10.67;;;6.20;;
10884;SDS011;5495;53.252;10.390;2022-09-09T05:29:10;14.73;;;6.37;;
10884;SDS011;5495;53.252;10.390;2022-09-09T05:31:42;9.83;;;6.60;;
10884;SDS011;5495;53.252;10.390;2022-09-09T05:34:09;11.53;;;6.20;;
10884;SDS011;5495;53.252;10.390;2022-09-09T05:36:38;10.20;;;6.37;;
10884;SDS011;5495;53.252;10.390;2022-09-09T05:39:07;12.53;;;6.53;;
10884;SDS011;5495;53.252;10.390;2022-09-09T05:41:37;7.23;;;5.70;;
10884;SDS011;5495;53.252;10.390;2022-09-09T05:44:05;8.87;;;5.87;;
10884;SDS011;5495;53.252;10.390;2022-09-09T05:46:33;10.27;;;4.90;;
10884;SDS011;5495;53.252;10.390;2022-09-09T05:49:01;9.97;;;5.77;;
10884;SDS011;5495;53.252;10.390;2022-09-09T05:51:33;9.37;;;4.90;;
10884;SDS011;5495;53.252;10.390;2022-09-09T05:54:13;10.43;;;5.47;;
10884;SDS011;5495;53.252;10.390;2022-09-09T05:56:43;8.03;;;4.87;;
10884;SDS011;5495;53.252;10.390;2022-09-09T05:59:10;6.40;;;4.77;;
10884;SDS011;5495;53.252;10.390;2022-09-09T06:01:38;5.57;;;5.03;;
10884;SDS011;5495;53.252;10.390;2022-09-09T06:04:06;4.83;;;4.30;;
10884;SDS011;5495;53.252;10.390;2022-09-09T06:06:38;5.53;;;4.00;;
10884;SDS011;5495;53.252;10.390;2022-09-09T06:09:11;5.97;;;4.20;;
10884;SDS011;5495;53.252;10.390;2022-09-09T06:11:41;6.13;;;4.50;;
10884;SDS011;5495;53.252;10.390;2022-09-09T06:14:09;4.83;;;3.40;;
10884;SDS011;5495;53.252;10.390;2022-09-09T06:16:40;7.43;;;4.23;;
10884;SDS011;5495;53.252;10.390;2022-09-09T06:19:12;10.83;;;4.20;;
10884;SDS011;5495;53.252;10.390;2022-09-09T06:21:39;5.07;;;4.03;;
10884;SDS011;5495;53.252;10.390;2022-09-09T06:24:12;9.60;;;3.83;;
10884;SDS011;5495;53.252;10.390;2022-09-09T06:26:42;6.67;;;3.83;;
10884;SDS011;5495;53.252;10.390;2022-09-09T06:29:10;6.73;;;4.00;;
10884;SDS011;5495;53.252;10.390;2022-09-09T06:31:38;8.27;;;3.70;;
10884;SDS011;5495;53.252;10.390;2022-09-09T06:34:06;7.23;;;3.43;;
10884;SDS011;5495;53.252;10.390;2022-09-09T06:36:37;8.63;;;3.70;;
10884;SDS011;5495;53.252;10.390;2022-09-09T06:39:07;3.97;;;3.57;;
10884;SDS011;5495;53.252;10.390;2022-09-09T06:41:38;4.07;;;3.67;;
10884;SDS011;5495;53.252;10.390;2022-09-09T06:44:06;5.63;;;4.17;;
10884;SDS011;5495;53.252;10.390;2022-09-09T06:46:34;9.83;;;3.97;;
10884;SDS011;5495;53.252;10.390;2022-09-09T06:49:01;6.40;;;3.97;;
10884;SDS011;5495;53.252;10.390;2022-09-09T06:51:31;7.70;;;3.33;;
10884;SDS011;5495;53.252;10.390;2022-09-09T06:54:01;5.53;;;3.60;;
10884;SDS011;5495;53.252;10.390;2022-09-09T06:56:41;5.97;;;3.40;;
10884;SDS011;5495;53.252;10.390;2022-09-09T06:59:10;7.93;;;3.77;;
10884;SDS011;5495;53.252;10.390;2022-09-09T07:01:39;8.93;;;3.07;;
10884;SDS011;5495;53.252;10.390;2022-09-09T07:04:09;8.50;;;3.23;;
10884;SDS011;5495;53.252;10.390;2022-09-09T07:06:39;4.07;;;2.63;;
10884;SDS011;5495;53.252;10.390;2022-09-09T07:09:10;6.60;;;3.00;;
10884;SDS011;5495;53.252;10.390;2022-09-09T07:11:39;4.77;;;3.03;;
10884;SDS011;5495;53.252;10.390;2022-09-09T07:14:09;3.53;;;2.50;;
10884;SDS011;5495;53.252;10.390;2022-09-09T07:16:41;4.17;;;2.97;;
10884;SDS011;5495;53.252;10.390;2022-09-09T07:19:10;3.83;;;2.60;;
10884;SDS011;5495;53.252;10.390;2022-09-09T07:21:46;4.30;;;2.30;;
10884;SDS011;5495;53.252;10.390;2022-09-09T07:24:15;5.07;;;2.63;;
10884;SDS011;5495;53.252;10.390;2022-09-09T07:26:45;5.50;;;3.00;;
10884;SDS011;5495;53.252;10.390;2022-09-09T07:29:16;4.67;;;2.37;;
10884;SDS011;5495;53.252;10.390;2022-09-09T07:31:44;3.93;;;2.70;;
10884;SDS011;5495;53.252;10.390;2022-09-09T07:34:12;6.33;;;2.63;;
10884;SDS011;5495;53.252;10.390;2022-09-09T07:36:44;4.77;;;2.73;;
10884;SDS011;5495;53.252;10.390;2022-09-09T07:39:12;2.53;;;2.30;;
10884;SDS011;5495;53.252;10.390;2022-09-09T07:41:43;5.47;;;2.27;;
10884;SDS011;5495;53.252;10.390;2022-09-09T07:44:17;4.70;;;2.40;;
10884;SDS011;5495;53.252;10.390;2022-09-09T07:46:50;7.30;;;2.70;;
10884;SDS011;5495;53.252;10.390;2022-09-09T07:49:20;4.33;;;3.00;;
10884;SDS011;5495;53.252;10.390;2022-09-09T07:51:48;5.37;;;2.77;;
10884;SDS011;5495;53.252;10.390;2022-09-09T07:54:17;7.77;;;2.90;;
10884;SDS011;5495;53.252;10.390;2022-09-09T07:56:50;4.57;;;2.57;;
10884;SDS011;5495;53.252;10.390;2022-09-09T07:59:21;5.17;;;3.00;;
10884;SDS011;5495;53.252;10.390;2022-09-09T08:01:49;4.77;;;2.87;;
10884;SDS011;5495;53.252;10.390;2022-09-09T08:04:19;3.57;;;2.40;;
10884;SDS011;5495;53.252;10.390;2022-09-09T08:06:50;4.10;;;2.33;;
10884;SDS011;5495;53.252;10.390;2022-09-09T08:09:22;3.47;;;2.00;;
10884;SDS011;5495;53.252;10.390;2022-09-09T08:11:53;5.00;;;2.30;;
10884;SDS011;5495;53.252;10.390;2022-09-09T08:14:22;6.10;;;3.23;;
10884;SDS011;5495;53.252;10.390;2022-09-09T08:16:52;3.57;;;2.97;;
10884;SDS011;5495;53.252;10.390;2022-09-09T08:19:20;4.53;;;2.40;;
10884;SDS011;5495;53.252;10.390;2022-09-09T08:21:48;4.20;;;2.47;;
10884;SDS011;5495;53.252;10.390;2022-09-09T08:24:16;5.37;;;2.83;;
10884;SDS011;5495;53.252;10.390;2022-09-09T08:26:45;5.53;;;2.60;;
10884;SDS011;5495;53.252;10.390;2022-09-09T08:29:22;3.93;;;2.43;;
10884;SDS011;5495;53.252;10.390;2022-09-09T08:31:50;5.47;;;3.10;;
10884;SDS011;5495;53.252;10.390;2022-09-09T08:34:19;4.33;;;2.83;;
10884;SDS011;5495;53.252;10.390;2022-09-09T08:36:48;4.47;;;2.93;;
10884;SDS011;5495;53.252;10.390;2022-09-09T08:39:17;3.20;;;2.53;;
10884;SDS011;5495;53.252;10.390;2022-09-09T08:42:01;4.00;;;2.67;;
10884;SDS011;5495;53.252;10.390;2022-09-09T08:44:42;3.57;;;2.07;;
10884;SDS011;5495;53.252;10.390;2022-09-09T08:47:31;3.70;;;2.50;;
10884;SDS011;5495;53.252;10.390;2022-09-09T08:50:13;4.23;;;2.50;;
10884;SDS011;5495;53.252;10.390;2022-09-09T08:52:55;4.50;;;2.53;;
10884;SDS011;5495;53.252;10.390;2022-09-09T08:55:29;3.33;;;2.23;;
10884;SDS011;5495;53.252;10.390;2022-09-09T08:58:19;5.17;;;2.67;;
10884;SDS011;5495;53.252;10.390;2022-09-09T09:01:12;4.53;;;2.40;;
10884;SDS011;5495;53.252;10.390;2022-09-09T09:04:02;6.23;;;2.83;;
10884;SDS011;5495;53.252;10.390;2022-09-09T09:06:45;4.77;;;2.57;;
10884;SDS011;5495;53.252;10.390;2022-09-09T09:09:23;4.70;;;2.47;;
10884;SDS011;5495;53.252;10.390;2022-09-09T09:12:06;3.10;;;2.80;;
10884;SDS011;5495;53.252;10.390;2022-09-09T09:14:42;4.77;;;2.90;;
10884;SDS011;5495;53.252;10.390;2022-09-09T09:17:14;3.43;;;2.30;;
10884;SDS011;5495;53.252;10.390;2022-09-09T09:19:46;9.40;;;2.70;;
10884;SDS011;5495;53.252;10.390;2022-09-09T09:22:17;5.77;;;2.80;;
10884;SDS011;5495;53.252;10.390;2022-09-09T09:24:50;3.23;;;2.03;;
10884;SDS011;5495;53.252;10.390;2022-09-09T09:27:22;3.67;;;2.23;;
10884;SDS011;5495;53.252;10.390;2022-09-09T09:30:05;4.73;;;2.33;;
10884;SDS011;5495;53.252;10.390;2022-09-09T09:32:47;5.60;;;2.10;;
10884;SDS011;5495;53.252;10.390;2022-09-09T09:35:19;4.27;;;2.47;;
10884;SDS011;5495;53.252;10.390;2022-09-09T09:37:50;5.67;;;2.10;;
10884;SDS011;5495;53.252;10.390;2022-09-09T09:40:24;4.87;;;2.37;;
10884;SDS011;5495;53.252;10.390;2022-09-09T09:42:56;5.63;;;2.17;;
10884;SDS011;5495;53.252;10.390;2022-09-09T09:45:28;5.27;;;2.30;;
10884;SDS011;5495;53.252;10.390;2022-09-09T09:48:03;5.43;;;1.90;;
10884;SDS011;5495;53.252;10.390;2022-09-09T09:50:32;3.33;;;1.80;;
10884;SDS011;5495;53.252;10.390;2022-09-09T09:53:02;2.90;;;1.80;;
10884;SDS011;5495;53.252;10.390;2022-09-09T09:55:44;6.23;;;1.80;;
10884;SDS011;5495;53.252;10.390;2022-09-09T09:58:48;2.17;;;1.70;;
10884;SDS011;5495;53.252;10.390;2022-09-09T10:01:19;4.77;;;2.00;;
10884;SDS011;5495;53.252;10.390;2022-09-09T10:03:52;4.20;;;2.00;;
10884;SDS011;5495;53.252;10.390;2022-09-09T10:06:32;4.73;;;2.00;;
10884;SDS011;5495;53.252;10.390;2022-09-09T10:09:17;3.83;;;1.90;;
10884;SDS011;5495;53.252;10.390;2022-09-09T10:12:04;3.20;;;1.80;;
10884;SDS011;5495;53.252;10.390;2022-09-09T10:14:45;3.37;;;1.70;;
10884;SDS011;5495;53.252;10.390;2022-09-09T10:17:27;2.47;;;1.97;;
10884;SDS011;5495;53.252;10.390;2022-09-09T10:20:25;5.03;;;1.80;;
10884;SDS011;5495;53.252;10.390;2022-09-09T10:23:07;3.77;;;1.67;;
10884;SDS011;5495;53.252;10.390;2022-09-09T10:25:55;6.27;;;1.47;;
10884;SDS011;5495;53.252;10.390;2022-09-09T10:28:39;2.87;;;1.50;;
10884;SDS011;5495;53.252;10.390;2022-09-09T10:31:23;4.03;;;1.30;;
10884;SDS011;5495;53.252;10.390;2022-09-09T10:34:00;3.00;;;1.70;;
10884;SDS011;5495;53.252;10.390;2022-09-09T10:36:42;3.33;;;1.63;;
10884;SDS011;5495;53.252;10.390;2022-09-09T10:39:16;3.07;;;1.70;;
10884;SDS011;5495;53.252;10.390;2022-09-09T10:41:56;4.30;;;2.10;;
10884;SDS011;5495;53.252;10.390;2022-09-09T10:44:33;5.13;;;1.57;;
10884;SDS011;5495;53.252;10.390;2022-09-09T10:47:31;3.93;;;1.60;;
10884;SDS011;5495;53.252;10.390;2022-09-09T10:50:20;3.23;;;1.50;;
10884;SDS011;5495;53.252;10.390;2022-09-09T10:53:02;4.37;;;1.53;;
10884;SDS011;5495;53.252;10.390;2022-09-09T10:55:41;4.60;;;1.67;;
10884;SDS011;5495;53.252;10.390;2022-09-09T10:58:10;4.23;;;1.70;;
10884;SDS011;5495;53.252;10.390;2022-09-09T11:00:44;2.57;;;1.10;;
10884;SDS011;5495;53.252;10.390;2022-09-09T11:03:17;2.83;;;1.00;;
10884;SDS011;5495;53.252;10.390;2022-09-09T11:05:49;3.03;;;1.23;;
10884;SDS011;5495;53.252;10.390;2022-09-09T11:08:24;5.87;;;1.20;;
10884;SDS011;5495;53.252;10.390;2022-09-09T11:10:57;3.97;;;1.47;;
10884;SDS011;5495;53.252;10.390;2022-09-09T11:13:40;3.30;;;1.20;;
10884;SDS011;5495;53.252;10.390;2022-09-09T11:16:16;2.03;;;1.27;;
10884;SDS011;5495;53.252;10.390;2022-09-09T11:18:53;3.37;;;1.53;;
10884;SDS011;5495;53.252;10.390;2022-09-09T11:21:26;2.80;;;1.30;;
10884;SDS011;5495;53.252;10.390;2022-09-09T11:23:59;3.50;;;1.10;;
10884;SDS011;5495;53.252;10.390;2022-09-09T11:26:34;2.40;;;1.40;;
10884;SDS011;5495;53.252;10.390;2022-09-09T11:29:09;3.13;;;1.40;;
10884;SDS011;5495;53.252;10.390;2022-09-09T11:32:12;4.97;;;1.50;;
10884;SDS011;5495;53.252;10.390;2022-09-09T11:34:51;3.37;;;1.83;;
10884;SDS011;5495;53.252;10.390;2022-09-09T11:37:27;5.97;;;1.90;;
10884;SDS011;5495;53.252;10.390;2022-09-09T11:40:21;6.03;;;2.20;;
10884;SDS011;5495;53.252;10.390;2022-09-09T11:43:00;5.73;;;2.63;;
10884;SDS011;5495;53.252;10.390;2022-09-09T11:45:31;6.77;;;2.33;;
10884;SDS011;5495;53.252;10.390;2022-09-09T11:48:02;5.57;;;2.50;;
10884;SDS011;5495;53.252;10.390;2022-09-09T11:50:33;5.17;;;2.90;;
10884;SDS011;5495;53.252;10.390;2022-09-09T11:53:05;7.30;;;2.60;;
10884;SDS011;5495;53.252;10.390;2022-09-09T11:56:06;5.93;;;2.50;;
10884;SDS011;5495;53.252;10.390;2022-09-09T11:58:53;6.87;;;2.60;;
10884;SDS011;5495;53.252;10.390;2022-09-09T12:01:27;5.67;;;2.87;;
10884;SDS011;5495;53.252;10.390;2022-09-09T12:07:00;4.80;;;3.03;;
10884;SDS011;5495;53.252;10.390;2022-09-09T12:09:55;6.47;;;3.10;;
10884;SDS011;5495;53.252;10.390;2022-09-09T12:12:28;5.30;;;2.83;;
10884;SDS011;5495;53.252;10.390;2022-09-09T12:17:57;3.90;;;2.73;;
10884;SDS011;5495;53.252;10.390;2022-09-09T12:20:36;4.40;;;2.70;;
10884;SDS011;5495;53.252;10.390;2022-09-09T12:23:35;7.73;;;2.50;;
10884;SDS011;5495;53.252;10.390;2022-09-09T12:29:43;5.27;;;2.50;;
10884;SDS011;5495;53.252;10.390;2022-09-09T12:32:19;3.70;;;2.30;;
10884;SDS011;5495;53.252;10.390;2022-09-09T12:34:52;4.13;;;2.40;;
10884;SDS011;5495;53.252;10.390;2022-09-09T12:37:27;6.27;;;2.30;;
10884;SDS011;5495;53.252;10.390;2022-09-09T12:40:06;5.67;;;2.10;;
10884;SDS011;5495;53.252;10.390;2022-09-09T12:42:45;4.77;;;2.20;;
10884;SDS011;5495;53.252;10.390;2022-09-09T12:45:24;2.93;;;2.03;;
10884;SDS011;5495;53.252;10.390;2022-09-09T12:48:12;5.00;;;2.90;;
10884;SDS011;5495;53.252;10.390;2022-09-09T12:51:05;4.63;;;2.57;;
10884;SDS011;5495;53.252;10.390;2022-09-09T12:53:47;9.20;;;2.07;;
10884;SDS011;5495;53.252;10.390;2022-09-09T12:56:25;4.67;;;2.17;;
10884;SDS011;5495;53.252;10.390;2022-09-09T12:59:21;6.37;;;2.20;;
10884;SDS011;5495;53.252;10.390;2022-09-09T13:02:02;8.10;;;2.80;;
10884;SDS011;5495;53.252;10.390;2022-09-09T13:08:32;5.90;;;2.30;;
10884;SDS011;5495;53.252;10.390;2022-09-09T13:11:15;3.30;;;1.80;;
10884;SDS011;5495;53.252;10.390;2022-09-09T13:13:57;3.30;;;1.70;;
10884;SDS011;5495;53.252;10.390;2022-09-09T13:16:30;2.67;;;1.60;;
10884;SDS011;5495;53.252;10.390;2022-09-09T13:45:16;4.10;;;2.23;;
10884;SDS011;5495;53.252;10.390;2022-09-09T13:52:15;5.90;;;2.00;;
10884;SDS011;5495;53.252;10.390;2022-09-09T14:31:47;5.37;;;1.30;;
10884;SDS011;5495;53.252;10.390;2022-09-09T14:38:19;3.27;;;1.03;;
10884;SDS011;5495;53.252;10.390;2022-09-09T14:40:48;2.83;;;1.10;;
10884;SDS011;5495;53.252;10.390;2022-09-09T14:43:56;3.90;;;1.10;;
10884;SDS011;5495;53.252;10.390;2022-09-09T14:46:25;3.23;;;1.57;;
10884;SDS011;5495;53.252;10.390;2022-09-09T15:05:27;3.43;;;1.40;;
10884;SDS011;5495;53.252;10.390;2022-09-09T15:08:00;3.23;;;1.63;;
10884;SDS011;5495;53.252;10.390;2022-09-09T15:10:37;2.50;;;1.37;;
10884;SDS011;5495;53.252;10.390;2022-09-09T15:14:11;6.83;;;1.60;;
10884;SDS011;5495;53.252;10.390;2022-09-09T15:51:04;2.00;;;1.50;;
10884;SDS011;5495;53.252;10.390;2022-09-09T15:56:57;2.87;;;1.60;;
10884;SDS011;5495;53.252;10.390;2022-09-09T15:59:58;5.83;;;1.80;;
10884;SDS011;5495;53.252;10.390;2022-09-09T16:06:20;5.67;;;1.80;;
10884;SDS011;5495;53.252;10.390;2022-09-09T16:10:18;8.77;;;2.40;;
10884;SDS011;5495;53.252;10.390;2022-09-09T16:36:11;3.83;;;2.27;;
10884;SDS011;5495;53.252;10.390;2022-09-09T16:41:50;4.00;;;2.60;;
10884;SDS011;5495;53.252;10.390;2022-09-09T16:44:23;5.17;;;2.30;;
10884;SDS011;5495;53.252;10.390;2022-09-09T17:13:43;11.90;;;4.53;;
10884;SDS011;5495;53.252;10.390;2022-09-09T17:19:50;5.50;;;4.63;;
10884;SDS011;5495;53.252;10.390;2022-09-09T17:22:46;5.30;;;4.40;;
10884;SDS011;5495;53.252;10.390;2022-09-09T17:25:27;7.60;;;4.03;;
10884;SDS011;5495;53.252;10.390;2022-09-09T17:27:57;7.13;;;3.23;;
10884;SDS011;5495;53.252;10.390;2022-09-09T17:33:06;13.50;;;3.43;;
10884;SDS011;5495;53.252;10.390;2022-09-09T17:34:35;8.07;;;3.20;;
10884;SDS011;5495;53.252;10.390;2022-09-09T17:40:30;4.77;;;3.20;;
10884;SDS011;5495;53.252;10.390;2022-09-09T17:49:10;10.30;;;3.57;;
10884;SDS011;5495;53.252;10.390;2022-09-09T17:50:38;13.20;;;3.20;;
10884;SDS011;5495;53.252;10.390;2022-09-09T18:40:04;12.50;;;3.70;;
10884;SDS011;5495;53.252;10.390;2022-09-09T18:42:38;8.53;;;3.73;;
10884;SDS011;5495;53.252;10.390;2022-09-09T18:45:39;6.17;;;3.83;;
10884;SDS011;5495;53.252;10.390;2022-09-09T18:48:28;5.90;;;3.03;;
10884;SDS011;5495;53.252;10.390;2022-09-09T18:51:12;4.20;;;3.17;;
10884;SDS011;5495;53.252;10.390;2022-09-09T18:53:48;8.60;;;3.50;;
10884;SDS011;5495;53.252;10.390;2022-09-09T18:56:21;11.50;;;3.97;;
10884;SDS011;5495;53.252;10.390;2022-09-09T18:59:02;8.53;;;3.53;;
10884;SDS011;5495;53.252;10.390;2022-09-09T19:01:38;10.07;;;3.20;;
10884;SDS011;5495;53.252;10.390;2022-09-09T19:04:23;12.03;;;4.07;;
10884;SDS011;5495;53.252;10.390;2022-09-09T19:07:44;4.73;;;3.13;;
10884;SDS011;5495;53.252;10.390;2022-09-09T19:10:26;7.37;;;3.37;;
10884;SDS011;5495;53.252;10.390;2022-09-09T19:15:58;6.83;;;3.20;;
10884;SDS011;5495;53.252;10.390;2022-09-09T19:19:00;10.40;;;3.27;;
10884;SDS011;5495;53.252;10.390;2022-09-09T19:21:56;6.83;;;2.87;;
10884;SDS011;5495;53.252;10.390;2022-09-09T19:24:42;10.50;;;3.03;;
10884;SDS011;5495;53.252;10.390;2022-09-09T19:27:25;7.97;;;3.10;;
10884;SDS011;5495;53.252;10.390;2022-09-09T19:30:05;8.73;;;3.03;;
10884;SDS011;5495;53.252;10.390;2022-09-09T19:32:39;12.43;;;3.33;;
10884;SDS011;5495;53.252;10.390;2022-09-09T19:35:14;10.00;;;3.27;;
10884;SDS011;5495;53.252;10.390;2022-09-09T19:37:46;5.90;;;2.17;;
10884;SDS011;5495;53.252;10.390;2022-09-09T19:40:14;5.73;;;3.07;;
10884;SDS011;5495;53.252;10.390;2022-09-09T19:42:43;8.03;;;2.80;;
10884;SDS011;5495;53.252;10.390;2022-09-09T19:45:15;4.70;;;2.33;;
10884;SDS011;5495;53.252;10.390;2022-09-09T19:47:43;3.57;;;2.50;;
10884;SDS011;5495;53.252;10.390;2022-09-09T19:50:14;7.03;;;2.90;;